Time;durP1;ratioP1;P1;durP2;ratioP2;P2;SDS_P1;SDS_P2;PMS_P1;PMS_P2;Temp;Humidity;BMP_temperature;BMP_pressure;BME280_temperature;BME280_humidity;BME280_pressure;Samples;Min_cycle;Max_cycle;Signal;HPM_P1;HPM_P2
2023/09/14 00:00:36;;;;;;;3.97;3.65;;;18.00;99.90;;;;;;4191428;28;20390;-57
2023/09/14 00:02:56;;;;;;;4.65;3.30;;;18.00;99.90;;;;;;4193592;28;20090;-57
2023/09/14 00:05:16;;;;;;;4.40;4.18;;;18.00;99.90;;;;;;4193609;28;20071;-57
2023/09/14 00:07:36;;;;;;;4.07;3.85;;;17.90;99.90;;;;;;4192938;28;20076;-57
2023/09/14 00:09:56;;;;;;;4.18;3.95;;;17.90;99.90;;;;;;4193055;28;20060;-57
2023/09/14 00:12:16;;;;;;;3.03;2.92;;;17.80;99.90;;;;;;4192403;28;20359;-57
2023/09/14 00:14:37;;;;;;;3.53;3.42;;;17.70;99.90;;;;;;4189709;28;20056;-57
2023/09/14 00:16:57;;;;;;;3.60;3.38;;;17.80;99.90;;;;;;4196915;28;20067;-57
2023/09/14 00:19:17;;;;;;;3.72;3.53;;;17.90;99.90;;;;;;4193270;28;20056;-57
2023/09/14 00:21:38;;;;;;;3.53;3.42;;;17.90;99.90;;;;;;4193846;28;20040;-56
2023/09/14 00:23:59;;;;;;;3.80;3.70;;;17.80;99.90;;;;;;4192347;28;20078;-57
2023/09/14 00:26:19;;;;;;;3.95;3.75;;;17.90;99.90;;;;;;4192196;28;20240;-57
2023/09/14 00:28:39;;;;;;;4.55;4.13;;;18.00;99.90;;;;;;4191787;28;20052;-57
2023/09/14 00:30:59;;;;;;;3.58;3.28;;;17.90;99.90;;;;;;4192376;28;20056;-57
2023/09/14 00:33:20;;;;;;;4.78;4.38;;;17.60;99.90;;;;;;4193854;28;20056;-57
2023/09/14 00:35:40;;;;;;;4.03;3.63;;;17.50;99.90;;;;;;4192277;28;20060;-57
2023/09/14 00:38:01;;;;;;;4.00;3.80;;;17.50;99.90;;;;;;4190835;28;20071;-57
2023/09/14 00:40:21;;;;;;;8.25;4.05;;;17.40;99.90;;;;;;4190906;28;20280;-57
2023/09/14 00:42:46;;;;;;;4.20;4.03;;;17.00;99.90;;;;;;4193262;28;20132;-57
2023/09/14 00:45:16;;;;;;;4.45;4.10;;;16.80;99.90;;;;;;4194733;28;20292;-57
2023/09/14 00:47:38;;;;;;;4.35;4.25;;;16.70;99.90;;;;;;4191287;28;20108;-57
2023/09/14 00:49:58;;;;;;;4.72;4.53;;;16.60;99.90;;;;;;4191014;28;20048;-57
2023/09/14 00:52:18;;;;;;;4.28;4.13;;;16.50;99.90;;;;;;4191605;28;20109;-57
2023/09/14 00:54:39;;;;;;;4.60;4.40;;;16.60;99.90;;;;;;4191769;28;20089;-57
2023/09/14 00:56:59;;;;;;;4.50;4.25;;;16.90;99.90;;;;;;4191147;28;20236;-57
2023/09/14 00:59:19;;;;;;;4.53;4.35;;;16.90;99.90;;;;;;4190745;28;20324;-57
2023/09/14 01:01:40;;;;;;;4.68;4.32;;;16.90;99.90;;;;;;4192345;28;20048;-57
2023/09/14 01:04:00;;;;;;;5.30;5.07;;;16.90;99.90;;;;;;4190503;28;20052;-57
2023/09/14 01:06:21;;;;;;;5.72;5.40;;;16.90;99.90;;;;;;4191331;28;20044;-58
2023/09/14 01:08:42;;;;;;;5.00;4.90;;;16.90;99.90;;;;;;4191598;28;20064;-57
2023/09/14 01:11:02;;;;;;;4.30;4.18;;;16.90;99.90;;;;;;4192858;28;20159;-57
2023/09/14 01:13:58;;;;;;;4.72;4.32;;;16.90;99.90;;;;;;4192386;28;20431;-57
2023/09/14 01:16:35;;;;;;;5.13;4.80;;;16.90;99.90;;;;;;4192676;28;20052;-57
2023/09/14 01:19:03;;;;;;;5.22;4.90;;;16.80;99.90;;;;;;4191475;28;20072;-57
2023/09/14 01:21:45;;;;;;;5.65;5.10;;;16.80;99.90;;;;;;4192186;28;20052;-57
2023/09/14 01:24:15;;;;;;;5.18;4.88;;;16.90;99.90;;;;;;4190444;28;20166;-57
2023/09/14 01:26:35;;;;;;;4.82;4.25;;;17.00;99.90;;;;;;4191637;28;20079;-57
2023/09/14 01:28:55;;;;;;;4.88;4.65;;;17.00;99.90;;;;;;4191526;28;20056;-57
2023/09/14 01:31:15;;;;;;;4.30;4.03;;;17.00;99.90;;;;;;4190770;28;20093;-57
2023/09/14 01:33:36;;;;;;;5.35;5.10;;;17.10;99.90;;;;;;4194396;28;20051;-57
2023/09/14 01:36:14;;;;;;;4.50;3.92;;;17.00;99.90;;;;;;4193783;28;20043;-57
2023/09/14 01:38:35;;;;;;;5.00;4.70;;;17.00;99.90;;;;;;4192734;28;20044;-57
2023/09/14 01:40:56;;;;;;;5.05;4.85;;;17.10;99.90;;;;;;4194797;28;20473;-57
2023/09/14 01:43:16;;;;;;;3.88;3.78;;;16.90;99.90;;;;;;4191967;28;20239;-57
2023/09/14 01:45:37;;;;;;;4.45;4.35;;;16.70;99.90;;;;;;4192397;28;20124;-57
2023/09/14 01:47:57;;;;;;;5.68;5.47;;;16.80;99.90;;;;;;4193190;28;20095;-57
2023/09/14 01:50:17;;;;;;;4.90;4.68;;;16.70;99.90;;;;;;4191618;28;20056;-57
2023/09/14 01:52:38;;;;;;;5.07;4.85;;;16.50;99.90;;;;;;4191997;28;20072;-57
2023/09/14 01:54:58;;;;;;;5.07;4.82;;;16.40;99.90;;;;;;4191272;28;20083;-57
2023/09/14 01:57:18;;;;;;;6.95;4.90;;;16.30;99.90;;;;;;4190206;28;20083;-57
2023/09/14 01:59:38;;;;;;;5.30;5.10;;;16.40;99.90;;;;;;4193405;28;20080;-56
2023/09/14 02:01:57;;;;;;;4.95;4.85;;;16.50;99.90;;;;;;4191304;28;20051;-56
2023/09/14 02:04:18;;;;;;;4.90;4.70;;;16.50;99.90;;;;;;4195229;28;20063;-57
2023/09/14 02:06:38;;;;;;;4.72;4.63;;;16.50;99.90;;;;;;4192986;28;20040;-57
2023/09/14 02:08:58;;;;;;;6.20;5.65;;;16.40;99.90;;;;;;4191167;28;20055;-57
2023/09/14 02:11:18;;;;;;;5.15;4.95;;;16.40;99.90;;;;;;4191954;28;20040;-57
2023/09/14 02:13:38;;;;;;;5.38;5.18;;;16.50;99.90;;;;;;4190413;28;20401;-57
2023/09/14 02:15:58;;;;;;;4.65;4.55;;;16.60;99.90;;;;;;4190534;28;20047;-57
2023/09/14 02:18:18;;;;;;;4.95;4.85;;;16.50;99.90;;;;;;4190769;28;20363;-57
2023/09/14 02:20:41;;;;;;;5.47;5.07;;;16.50;99.90;;;;;;4189932;28;20047;-57
2023/09/14 02:23:04;;;;;;;4.65;4.55;;;16.60;99.90;;;;;;4190162;28;20056;-56
2023/09/14 02:25:24;;;;;;;5.93;5.72;;;16.50;99.90;;;;;;4188624;28;20052;-57
2023/09/14 02:27:44;;;;;;;4.85;4.65;;;16.40;99.90;;;;;;4188529;28;20143;-57
2023/09/14 02:30:06;;;;;;;4.53;4.43;;;16.30;99.90;;;;;;4190978;28;20087;-57
2023/09/14 02:32:26;;;;;;;5.50;5.32;;;16.30;99.90;;;;;;4190014;28;20048;-56
2023/09/14 02:34:46;;;;;;;5.72;5.32;;;16.40;99.90;;;;;;4191063;28;20079;-57
2023/09/14 02:37:06;;;;;;;4.75;4.65;;;16.30;99.90;;;;;;4193921;28;20091;-57
2023/09/14 02:39:26;;;;;;;6.20;5.60;;;16.30;99.90;;;;;;4191690;28;20047;-57
2023/09/14 02:41:46;;;;;;;4.28;4.07;;;16.10;99.90;;;;;;4191432;28;20040;-57
2023/09/14 02:44:06;;;;;;;4.60;4.35;;;16.20;99.90;;;;;;4191233;28;20083;-57
2023/09/14 02:46:26;;;;;;;4.40;4.30;;;16.20;99.90;;;;;;4190126;28;20241;-57
2023/09/14 02:48:46;;;;;;;5.60;5.32;;;16.10;99.90;;;;;;4190527;28;20044;-57
2023/09/14 02:51:06;;;;;;;5.07;4.95;;;16.10;99.90;;;;;;4190308;28;20232;-57
2023/09/14 02:53:26;;;;;;;4.50;4.30;;;16.10;99.90;;;;;;4189349;28;20103;-56
2023/09/14 02:55:46;;;;;;;4.75;4.65;;;16.00;99.90;;;;;;4189850;28;20090;-56
2023/09/14 02:58:07;;;;;;;6.20;5.90;;;16.00;99.90;;;;;;4192190;28;20126;-57
2023/09/14 03:00:27;;;;;;;5.55;5.35;;;15.90;99.90;;;;;;4192757;28;20044;-57
2023/09/14 03:02:49;;;;;;;6.00;5.90;;;15.90;99.90;;;;;;4190525;28;20048;-56
2023/09/14 03:05:09;;;;;;;6.13;5.82;;;15.90;99.90;;;;;;4192160;28;20051;-57
2023/09/14 03:07:29;;;;;;;6.60;6.28;;;15.90;99.90;;;;;;4189808;28;20047;-57
2023/09/14 03:09:49;;;;;;;5.50;5.30;;;16.00;99.90;;;;;;4189477;28;20090;-57
2023/09/14 03:12:09;;;;;;;4.75;4.45;;;15.90;99.90;;;;;;4189687;28;20040;-57
2023/09/14 03:14:29;;;;;;;5.25;5.00;;;15.80;99.90;;;;;;4191923;28;20363;-57
2023/09/14 03:16:50;;;;;;;5.55;5.15;;;15.90;99.90;;;;;;4190610;28;20048;-57
2023/09/14 03:19:10;;;;;;;5.40;5.05;;;15.80;99.90;;;;;;4189622;28;20048;-57
2023/09/14 03:21:30;;;;;;;5.00;4.80;;;15.70;99.90;;;;;;4189778;28;20043;-57
2023/09/14 03:23:50;;;;;;;4.18;3.95;;;15.70;99.90;;;;;;4191416;28;20256;-57
2023/09/14 03:26:10;;;;;;;4.45;4.35;;;15.90;99.90;;;;;;4190245;28;20056;-57
2023/09/14 03:28:31;;;;;;;4.38;4.20;;;16.00;99.90;;;;;;4191320;28;20104;-57
2023/09/14 03:30:50;;;;;;;5.60;5.30;;;16.20;99.90;;;;;;4191997;28;20048;-57
2023/09/14 03:33:11;;;;;;;4.38;4.00;;;16.10;99.90;;;;;;4189875;28;20056;-57
2023/09/14 03:35:31;;;;;;;4.75;4.55;;;16.10;99.90;;;;;;4188887;28;20052;-57
2023/09/14 03:37:51;;;;;;;7.90;5.05;;;15.80;99.90;;;;;;4189324;28;20052;-57
2023/09/14 03:40:11;;;;;;;5.55;5.25;;;15.60;99.90;;;;;;4191969;28;20068;-57
2023/09/14 03:42:31;;;;;;;5.45;5.07;;;15.50;99.90;;;;;;4190414;28;20087;-57
2023/09/14 03:44:52;;;;;;;5.28;4.88;;;15.40;99.90;;;;;;4190624;28;20044;-57
2023/09/14 03:47:12;;;;;;;5.47;4.80;;;15.30;99.90;;;;;;4190294;28;20044;-57
2023/09/14 03:49:32;;;;;;;6.28;4.47;;;15.30;99.90;;;;;;4187777;28;20056;-57
2023/09/14 03:51:52;;;;;;;5.00;4.88;;;15.20;99.90;;;;;;4189207;28;20048;-57
2023/09/14 03:54:13;;;;;;;5.57;5.32;;;15.20;99.90;;;;;;4189595;28;20056;-57
2023/09/14 03:56:33;;;;;;;5.47;5.13;;;15.40;99.90;;;;;;4189535;28;20048;-56
2023/09/14 03:58:53;;;;;;;6.68;6.38;;;15.50;99.90;;;;;;4190027;28;20099;-57
2023/09/14 04:01:13;;;;;;;5.95;5.68;;;15.50;99.90;;;;;;4188927;28;20040;-57
2023/09/14 04:03:34;;;;;;;6.03;5.75;;;15.50;99.90;;;;;;4189259;28;20047;-57
2023/09/14 04:05:54;;;;;;;7.82;7.57;;;15.50;99.90;;;;;;4190603;28;20067;-57
2023/09/14 04:08:14;;;;;;;6.22;5.90;;;15.50;99.90;;;;;;4190350;28;20056;-57
2023/09/14 04:10:39;;;;;;;6.97;6.60;;;15.30;99.90;;;;;;4190468;28;20048;-57
2023/09/14 04:13:29;;;;;;;6.63;6.20;;;15.30;99.90;;;;;;4190212;28;20079;-57
2023/09/14 04:15:49;;;;;;;6.50;6.10;;;15.30;99.90;;;;;;4189019;28;20362;-57
2023/09/14 04:18:09;;;;;;;6.45;6.15;;;15.20;99.90;;;;;;4188776;28;20366;-57
2023/09/14 04:20:29;;;;;;;6.43;6.15;;;15.10;99.90;;;;;;4188368;28;20087;-57
2023/09/14 04:22:50;;;;;;;6.45;6.00;;;15.10;99.90;;;;;;4192080;28;20358;-57
2023/09/14 04:25:10;;;;;;;5.82;5.63;;;15.20;99.90;;;;;;4192192;28;20048;-57
2023/09/14 04:27:30;;;;;;;6.65;6.32;;;15.30;99.90;;;;;;4192033;28;20043;-56
2023/09/14 04:29:50;;;;;;;6.63;6.28;;;15.30;99.90;;;;;;4192152;28;20251;-57
2023/09/14 04:32:10;;;;;;;6.13;5.82;;;15.30;99.90;;;;;;4192947;28;20040;-57
2023/09/14 04:34:30;;;;;;;6.15;5.88;;;15.30;99.90;;;;;;4195522;28;20097;-57
2023/09/14 04:36:50;;;;;;;6.20;6.00;;;15.30;99.90;;;;;;4194069;28;20228;-57
2023/09/14 04:39:10;;;;;;;6.43;6.22;;;15.30;99.90;;;;;;4192746;28;20760;-56
2023/09/14 04:41:30;;;;;;;5.00;4.80;;;15.40;99.90;;;;;;4192955;28;20079;-57
2023/09/14 04:43:50;;;;;;;5.82;5.50;;;15.50;99.90;;;;;;4192754;28;20052;-57
2023/09/14 04:46:10;;;;;;;6.55;5.68;;;15.50;99.90;;;;;;4191790;28;20116;-57
2023/09/14 04:48:31;;;;;;;5.50;5.40;;;15.40;99.90;;;;;;4191391;28;20244;-57
2023/09/14 04:50:51;;;;;;;5.60;5.30;;;15.40;99.90;;;;;;4191424;28;20394;-57
2023/09/14 04:53:11;;;;;;;5.65;5.43;;;15.50;99.90;;;;;;4190383;28;20147;-57
2023/09/14 04:55:31;;;;;;;5.32;4.90;;;15.40;99.90;;;;;;4192445;28;20067;-57
2023/09/14 04:57:52;;;;;;;5.03;4.72;;;15.40;99.90;;;;;;4193771;28;20036;-57
2023/09/14 05:00:12;;;;;;;6.47;6.15;;;15.40;99.90;;;;;;4195460;28;20071;-57
2023/09/14 05:02:32;;;;;;;5.43;5.22;;;15.40;99.90;;;;;;4192514;28;20348;-57
2023/09/14 05:04:52;;;;;;;6.38;5.97;;;15.40;99.90;;;;;;4194916;28;20282;-57
2023/09/14 05:07:12;;;;;;;5.38;5.07;;;15.50;99.90;;;;;;4193424;28;20063;-58
2023/09/14 05:09:32;;;;;;;5.68;5.38;;;15.50;99.90;;;;;;4192880;28;20056;-59
2023/09/14 05:11:53;;;;;;;5.45;5.25;;;15.50;99.90;;;;;;4192421;28;20036;-59
2023/09/14 05:14:12;;;;;;;6.20;6.03;;;15.40;99.90;;;;;;4191911;28;20056;-59
2023/09/14 05:16:33;;;;;;;7.20;6.78;;;15.30;99.90;;;;;;4191300;28;20281;-59
2023/09/14 05:18:53;;;;;;;7.03;6.72;;;15.20;99.90;;;;;;4191012;28;20110;-59
2023/09/14 05:21:13;;;;;;;7.22;6.82;;;15.10;99.90;;;;;;4191195;28;20071;-59
2023/09/14 05:23:33;;;;;;;6.75;6.10;;;15.10;99.90;;;;;;4191367;28;20064;-58
2023/09/14 05:25:53;;;;;;;5.55;5.30;;;15.20;99.90;;;;;;4191094;28;20055;-59
2023/09/14 05:28:14;;;;;;;6.60;6.07;;;15.30;99.90;;;;;;4191466;28;20139;-59
2023/09/14 05:30:35;;;;;;;6.47;5.97;;;15.40;99.90;;;;;;4191594;28;20367;-58
2023/09/14 05:32:55;;;;;;;6.25;6.05;;;15.40;99.90;;;;;;4190561;28;20047;-59
2023/09/14 05:35:16;;;;;;;10.57;7.05;;;15.40;99.90;;;;;;4191959;28;20375;-59
2023/09/14 05:37:36;;;;;;;6.43;5.95;;;15.30;99.90;;;;;;4192190;28;20228;-59
2023/09/14 05:39:56;;;;;;;5.80;5.70;;;15.30;99.90;;;;;;4192658;28;20140;-58
2023/09/14 05:42:16;;;;;;;6.38;5.93;;;15.40;99.90;;;;;;4191902;28;20244;-59
2023/09/14 05:44:35;;;;;;;6.05;5.75;;;15.40;99.90;;;;;;4191017;28;20244;-59
2023/09/14 05:46:55;;;;;;;5.97;5.63;;;15.40;99.90;;;;;;4190832;28;20060;-59
2023/09/14 05:49:16;;;;;;;6.53;6.13;;;15.40;99.90;;;;;;4193442;28;20240;-58
2023/09/14 05:51:36;;;;;;;6.25;5.82;;;15.50;99.90;;;;;;4190252;28;20044;-59
2023/09/14 05:53:55;;;;;;;5.47;5.00;;;15.50;99.90;;;;;;4192845;28;20226;-59
2023/09/14 05:56:16;;;;;;;6.82;6.47;;;15.50;99.90;;;;;;4193482;28;20036;-59
2023/09/14 05:58:37;;;;;;;10.13;9.25;;;15.40;99.90;;;;;;4192448;28;20748;-58
2023/09/14 06:00:57;;;;;;;8.40;7.78;;;15.40;99.90;;;;;;4193387;28;20047;-59
2023/09/14 06:03:18;;;;;;;10.07;7.10;;;15.40;99.90;;;;;;4183209;28;20052;-59
2023/09/14 06:05:38;;;;;;;7.47;6.90;;;15.40;99.90;;;;;;4192061;28;20052;-59
2023/09/14 06:07:58;;;;;;;7.63;7.05;;;15.40;99.90;;;;;;4191416;28;20236;-58
2023/09/14 06:10:18;;;;;;;7.70;6.93;;;15.50;99.90;;;;;;4189308;28;20067;-59
2023/09/14 06:12:38;;;;;;;6.93;6.43;;;15.50;99.90;;;;;;4191269;28;20036;-58
2023/09/14 06:14:59;;;;;;;6.60;6.20;;;15.60;99.90;;;;;;4189938;28;20055;-59
2023/09/14 06:17:19;;;;;;;6.47;6.15;;;15.60;99.90;;;;;;4192938;28;20048;-59
2023/09/14 06:19:39;;;;;;;7.32;6.75;;;15.70;99.90;;;;;;4192006;28;20090;-59
2023/09/14 06:21:59;;;;;;;6.70;6.28;;;15.70;99.90;;;;;;4191583;28;20263;-59
2023/09/14 06:24:19;;;;;;;6.30;6.00;;;15.80;99.90;;;;;;4193478;28;20052;-59
2023/09/14 06:26:39;;;;;;;5.75;5.45;;;15.80;99.90;;;;;;4192190;28;20059;-59
2023/09/14 06:29:00;;;;;;;6.10;5.97;;;16.00;99.90;;;;;;4191249;28;20371;-59
2023/09/14 06:31:20;;;;;;;6.20;5.90;;;16.10;99.90;;;;;;4191698;28;20063;-59
2023/09/14 06:33:40;;;;;;;7.45;6.90;;;16.20;99.90;;;;;;4189491;28;20079;-59
2023/09/14 06:36:00;;;;;;;5.47;5.18;;;16.20;99.90;;;;;;4190197;28;20040;-59
2023/09/14 06:38:20;;;;;;;6.25;5.78;;;16.20;99.90;;;;;;4191777;28;20056;-59
2023/09/14 06:40:40;;;;;;;5.70;5.20;;;16.30;99.90;;;;;;4190105;28;20051;-59
2023/09/14 06:43:00;;;;;;;4.90;4.78;;;16.30;99.90;;;;;;4190545;28;20051;-59
2023/09/14 06:45:20;;;;;;;5.47;5.03;;;16.30;99.90;;;;;;4188509;28;20366;-59
2023/09/14 06:47:41;;;;;;;6.85;5.32;;;16.40;99.90;;;;;;4191654;28;20075;-59
2023/09/14 06:50:00;;;;;;;4.72;4.53;;;16.40;99.90;;;;;;4189478;28;20114;-59
2023/09/14 06:52:20;;;;;;;6.57;6.05;;;16.50;99.90;;;;;;4190340;28;20040;-59
2023/09/14 06:54:41;;;;;;;4.82;4.63;;;16.50;99.90;;;;;;4190268;28;20170;-59
2023/09/14 06:57:01;;;;;;;7.53;5.30;;;16.50;99.90;;;;;;4190507;28;20105;-59
2023/09/14 06:59:21;;;;;;;7.18;5.57;;;16.50;99.90;;;;;;4190822;28;20086;-59
2023/09/14 07:01:41;;;;;;;7.15;5.47;;;16.70;99.90;;;;;;4189272;28;20071;-59
2023/09/14 07:04:01;;;;;;;5.15;4.80;;;16.70;99.90;;;;;;4190053;28;20080;-59
2023/09/14 07:06:21;;;;;;;6.95;5.63;;;17.00;99.90;;;;;;4190047;28;20083;-59
2023/09/14 07:08:41;;;;;;;6.05;4.35;;;17.10;99.90;;;;;;4190153;28;20059;-59
2023/09/14 07:11:01;;;;;;;5.68;5.22;;;17.20;99.90;;;;;;4189603;28;20060;-59
2023/09/14 07:13:21;;;;;;;4.30;4.00;;;17.40;99.90;;;;;;4189520;28;20104;-59
2023/09/14 07:15:41;;;;;;;7.55;4.85;;;17.60;99.90;;;;;;4190269;28;20410;-59
2023/09/14 07:18:01;;;;;;;6.03;5.45;;;17.60;99.90;;;;;;4190821;28;20052;-59
2023/09/14 07:20:22;;;;;;;4.63;4.13;;;17.80;99.90;;;;;;4191858;28;20055;-59
2023/09/14 07:22:42;;;;;;;4.53;4.43;;;17.90;99.90;;;;;;4189441;28;20095;-59
2023/09/14 07:25:02;;;;;;;4.38;3.97;;;17.90;99.90;;;;;;4190017;28;20091;-59
2023/09/14 07:27:24;;;;;;;4.40;4.10;;;17.70;99.90;;;;;;4188057;28;20051;-59
2023/09/14 07:29:44;;;;;;;4.55;4.25;;;17.80;99.90;;;;;;4192866;28;20079;-59
2023/09/14 07:32:04;;;;;;;5.32;4.85;;;17.80;99.90;;;;;;4192257;28;20083;-59
2023/09/14 07:34:24;;;;;;;5.32;4.68;;;17.90;99.90;;;;;;4190481;28;20052;-59
2023/09/14 07:36:45;;;;;;;4.40;4.10;;;18.10;99.90;;;;;;4192148;28;20278;-59
2023/09/14 07:39:05;;;;;;;5.60;4.30;;;18.20;99.90;;;;;;4190471;28;20063;-59
2023/09/14 07:41:28;;;;;;;6.05;4.50;;;18.40;99.90;;;;;;4189592;28;20051;-59
2023/09/14 07:43:48;;;;;;;4.00;3.80;;;18.50;99.90;;;;;;4190233;28;20295;-59
2023/09/14 07:46:09;;;;;;;5.13;3.70;;;18.60;99.90;;;;;;4189581;28;20040;-59
2023/09/14 07:48:29;;;;;;;5.28;2.85;;;18.70;99.90;;;;;;4190505;28;20374;-59
2023/09/14 07:50:49;;;;;;;5.57;2.63;;;19.00;99.90;;;;;;4189975;28;20063;-59
2023/09/14 07:53:09;;;;;;;3.97;3.70;;;19.20;99.90;;;;;;4190139;28;20236;-59
2023/09/14 07:55:30;;;;;;;3.15;3.00;;;19.00;99.90;;;;;;4193423;28;20048;-59
2023/09/14 07:57:50;;;;;;;3.28;2.55;;;19.10;99.90;;;;;;4193915;28;20078;-59
2023/09/14 08:00:11;;;;;;;2.28;2.17;;;19.30;99.90;;;;;;4193593;28;20307;-59
2023/09/14 08:02:30;;;;;;;5.75;2.50;;;19.50;99.90;;;;;;4193643;28;20364;-59
2023/09/14 08:04:51;;;;;;;2.88;2.28;;;19.80;99.90;;;;;;4193390;28;20055;-59
2023/09/14 08:07:11;;;;;;;2.88;2.67;;;19.90;99.90;;;;;;4192125;28;20264;-59
2023/09/14 08:09:31;;;;;;;3.10;2.78;;;20.40;99.90;;;;;;4191874;28;20052;-59
2023/09/14 08:11:51;;;;;;;8.02;2.53;;;20.50;99.90;;;;;;4192907;28;20060;-60
2023/09/14 08:14:11;;;;;;;3.05;2.55;;;20.50;99.90;;;;;;4193442;28;20063;-59
2023/09/14 08:16:32;;;;;;;3.13;2.60;;;20.50;99.90;;;;;;4190874;28;20051;-59
2023/09/14 08:18:52;;;;;;;7.00;2.90;;;20.60;99.90;;;;;;4189553;28;20111;-59
2023/09/14 08:21:12;;;;;;;14.25;2.35;;;20.70;99.90;;;;;;4191924;28;20307;-59
2023/09/14 08:23:32;;;;;;;2.35;2.25;;;20.80;99.90;;;;;;4191064;28;20090;-59
2023/09/14 08:25:52;;;;;;;2.08;1.90;;;20.90;99.90;;;;;;4192447;28;20087;-59
2023/09/14 08:28:17;;;;;;;7.60;2.10;;;21.20;99.90;;;;;;4192417;28;20044;-59
2023/09/14 08:30:38;;;;;;;1.88;1.88;;;21.40;99.90;;;;;;4192729;28;20099;-59
2023/09/14 08:32:58;;;;;;;4.10;2.60;;;21.60;99.90;;;;;;4192855;28;20443;-59
2023/09/14 08:35:24;;;;;;;2.17;2.05;;;21.60;99.90;;;;;;4190994;28;20304;-59
2023/09/14 08:37:44;;;;;;;2.80;2.60;;;21.70;99.90;;;;;;4190452;28;20047;-58
2023/09/14 08:40:08;;;;;;;2.53;2.42;;;21.90;99.90;;;;;;4191034;28;20087;-59
2023/09/14 08:42:28;;;;;;;2.58;2.47;;;21.90;99.90;;;;;;4191476;28;20076;-59
2023/09/14 08:44:48;;;;;;;3.25;2.97;;;22.20;99.90;;;;;;4193791;28;20051;-59
2023/09/14 08:47:10;;;;;;;2.80;2.60;;;22.30;99.90;;;;;;4192133;28;20316;-59
2023/09/14 08:49:34;;;;;;;2.83;2.50;;;22.40;99.90;;;;;;4193451;28;20244;-59
2023/09/14 08:51:57;;;;;;;2.88;1.83;;;22.80;99.90;;;;;;4194334;28;20086;-59
2023/09/14 08:54:21;;;;;;;3.53;2.35;;;23.10;99.90;;;;;;4192597;28;20101;-60
2023/09/14 08:56:41;;;;;;;5.35;2.20;;;23.20;99.90;;;;;;4194452;28;20039;-59
2023/09/14 08:59:03;;;;;;;3.00;2.10;;;23.20;99.90;;;;;;4192717;28;20075;-59
2023/09/14 09:01:24;;;;;;;5.72;2.08;;;23.30;99.90;;;;;;4192925;28;20060;-60
2023/09/14 09:03:46;;;;;;;4.95;2.10;;;23.50;99.90;;;;;;4191749;28;20416;-60
2023/09/14 09:06:07;;;;;;;3.45;3.17;;;23.70;99.90;;;;;;4192086;28;20060;-60
2023/09/14 09:08:28;;;;;;;4.20;1.70;;;24.00;99.90;;;;;;4190374;28;20105;-59
2023/09/14 09:10:49;;;;;;;2.00;1.90;;;23.90;99.90;;;;;;4192256;28;20063;-60
2023/09/14 09:13:09;;;;;;;1.95;1.80;;;24.10;99.90;;;;;;4195891;28;20270;-60
2023/09/14 09:15:31;;;;;;;2.17;2.00;;;24.20;99.90;;;;;;4194855;28;20048;-59
2023/09/14 09:17:55;;;;;;;1.70;1.60;;;24.40;99.90;;;;;;4190489;28;20071;-59
2023/09/14 09:20:22;;;;;;;2.08;1.98;;;24.30;99.90;;;;;;4194428;28;20253;-60
2023/09/14 09:22:45;;;;;;;3.47;1.73;;;24.40;99.90;;;;;;4192507;28;20130;-59
2023/09/14 09:25:06;;;;;;;3.15;1.80;;;24.60;99.90;;;;;;4192810;28;20368;-60
2023/09/14 09:27:29;;;;;;;2.20;1.98;;;24.60;99.90;;;;;;4193407;28;20044;-60
2023/09/14 09:30:10;;;;;;;1.90;1.48;;;24.80;99.90;;;;;;4190784;28;20056;-60
2023/09/14 09:32:30;;;;;;;1.92;1.70;;;25.50;99.90;;;;;;4191488;28;20044;-60
2023/09/14 09:34:51;;;;;;;1.65;1.55;;;25.90;99.90;;;;;;4190857;28;20056;-60
2023/09/14 09:37:11;;;;;;;1.50;1.40;;;26.00;99.90;;;;;;4189625;28;20268;-60
2023/09/14 09:39:35;;;;;;;3.03;1.58;;;26.10;99.90;;;;;;4194430;28;20047;-60
2023/09/14 09:41:55;;;;;;;4.40;1.30;;;26.40;99.90;;;;;;4191508;28;20106;-60
2023/09/14 09:44:17;;;;;;;2.25;1.65;;;26.50;99.90;;;;;;4195633;28;20090;-60
2023/09/14 09:46:38;;;;;;;;;;;26.50;99.90;;;;;;4193268;28;20060;-59
2023/09/14 09:48:58;;;;;;;2.67;1.23;;;26.40;99.90;;;;;;4190142;28;19923;-59
2023/09/14 09:51:22;;;;;;;2.10;1.50;;;26.40;99.90;;;;;;4189653;28;20108;-60
2023/09/14 09:54:01;;;;;;;3.10;1.27;;;26.40;99.50;;;;;;4190744;28;20040;-60
2023/09/14 09:56:23;;;;;;;4.00;1.20;;;26.50;99.90;;;;;;4190813;28;20394;-60
2023/09/14 09:58:48;;;;;;;2.03;1.73;;;26.60;99.80;;;;;;4190975;28;20059;-60
2023/09/14 10:01:08;;;;;;;3.97;1.67;;;26.70;99.20;;;;;;4191105;28;20080;-59
2023/09/14 10:03:30;;;;;;;2.30;1.00;;;26.80;98.90;;;;;;4190482;28;20079;-60
2023/09/14 10:05:50;;;;;;;1.48;1.38;;;26.60;98.20;;;;;;4189239;28;20043;-60
2023/09/14 10:08:15;;;;;;;1.67;1.00;;;26.80;98.90;;;;;;4192048;28;20244;-60
2023/09/14 10:10:35;;;;;;;0.98;0.90;;;26.80;98.20;;;;;;4191690;28;20044;-60
2023/09/14 10:12:56;;;;;;;0.98;0.90;;;26.80;98.20;;;;;;4191321;28;20048;-59
2023/09/14 10:15:17;;;;;;;1.10;1.00;;;26.80;98.20;;;;;;4192145;28;20043;-60
2023/09/14 10:17:38;;;;;;;5.30;0.98;;;26.90;98.40;;;;;;4190157;28;20056;-60
2023/09/14 10:20:00;;;;;;;2.00;1.00;;;27.10;98.30;;;;;;4190167;28;20043;-59
2023/09/14 10:22:22;;;;;;;1.15;1.00;;;27.00;97.60;;;;;;4191536;28;20048;-60
2023/09/14 10:24:42;;;;;;;0.98;0.98;;;26.60;99.20;;;;;;4189163;28;20043;-60
2023/09/14 10:27:03;;;;;;;1.00;1.00;;;27.00;98.50;;;;;;4192180;28;20048;-59
2023/09/14 10:29:25;;;;;;;2.58;1.00;;;26.90;96.60;;;;;;4190946;28;20282;-60
2023/09/14 10:31:48;;;;;;;0.93;0.93;;;26.80;97.80;;;;;;4190878;28;20064;-59
2023/09/14 10:34:10;;;;;;;1.83;0.93;;;26.50;97.10;;;;;;4190326;28;20279;-60
2023/09/14 10:36:32;;;;;;;1.23;0.80;;;26.60;97.20;;;;;;4192234;28;20366;-59
2023/09/14 10:38:51;;;;;;;2.05;1.00;;;26.50;96.90;;;;;;4192875;28;20043;-60
2023/09/14 10:41:14;;;;;;;1.33;0.90;;;26.50;97.60;;;;;;4192749;28;20095;-59
2023/09/14 10:43:36;;;;;;;1.40;1.02;;;26.50;97.20;;;;;;4191705;28;20047;-59
2023/09/14 10:46:00;;;;;;;1.05;0.90;;;26.50;97.30;;;;;;4191760;28;20048;-59
2023/09/14 10:48:21;;;;;;;4.15;1.00;;;26.30;97.90;;;;;;4190224;28;20052;-60
2023/09/14 10:50:42;;;;;;;1.85;0.95;;;26.40;97.90;;;;;;4188563;28;20047;-60
2023/09/14 10:53:03;;;;;;;1.23;0.90;;;26.50;98.20;;;;;;4191900;28;20086;-60
2023/09/14 10:55:26;;;;;;;1.10;1.00;;;26.40;96.30;;;;;;4192286;28;20240;-60
2023/09/14 10:57:46;;;;;;;1.33;1.15;;;26.20;97.30;;;;;;4190691;28;20040;-59
2023/09/14 11:00:08;;;;;;;0.90;0.90;;;26.10;97.00;;;;;;4188956;28;20147;-59
2023/09/14 11:02:43;;;;;;;1.48;0.90;;;26.30;96.40;;;;;;4189795;28;20363;-59
2023/09/14 11:05:11;;;;;;;2.40;0.90;;;26.50;96.30;;;;;;4190615;28;20044;-59
2023/09/14 11:07:40;;;;;;;2.92;0.90;;;26.40;95.20;;;;;;4191022;28;20052;-59
2023/09/14 11:10:05;;;;;;;4.38;1.00;;;26.40;96.00;;;;;;4191526;28;20079;-60
2023/09/14 11:12:26;;;;;;;0.90;0.90;;;26.50;95.90;;;;;;4190879;28;20067;-60
2023/09/14 11:15:20;;;;;;;1.88;0.80;;;26.60;96.10;;;;;;4199156;28;20052;-60
2023/09/14 11:17:45;;;;;;;1.67;0.88;;;26.60;95.40;;;;;;4188594;28;20044;-60
2023/09/14 11:20:26;;;;;;;0.93;0.80;;;26.80;95.10;;;;;;4188400;28;20088;-60
2023/09/14 11:22:48;;;;;;;2.33;1.00;;;27.10;96.00;;;;;;4188438;28;20059;-59
2023/09/14 11:25:10;;;;;;;2.05;1.00;;;27.10;94.80;;;;;;4189404;28;20052;-59
2023/09/14 11:27:50;;;;;;;1.05;0.95;;;26.80;95.70;;;;;;4189925;28;20045;-59
2023/09/14 11:30:15;;;;;;;1.90;0.82;;;26.70;95.00;;;;;;4190037;28;20367;-59
2023/09/14 11:32:39;;;;;;;1.00;1.00;;;26.80;95.10;;;;;;4188958;28;20064;-60
2023/09/14 11:35:00;;;;;;;3.22;0.90;;;26.90;94.60;;;;;;4189959;28;20067;-59
2023/09/14 11:37:25;;;;;;;2.15;1.10;;;26.90;95.20;;;;;;4189209;28;20086;-59
2023/09/14 11:39:54;;;;;;;1.73;0.98;;;26.90;95.30;;;;;;4189289;28;20139;-60
2023/09/14 11:42:18;;;;;;;0.80;0.80;;;26.80;95.00;;;;;;4188566;28;20044;-59
2023/09/14 11:44:53;;;;;;;2.13;0.88;;;26.70;95.70;;;;;;4190316;28;20110;-60
2023/09/14 11:47:21;;;;;;;4.75;1.13;;;26.70;95.50;;;;;;4190739;28;20035;-60
2023/09/14 11:49:47;;;;;;;2.08;1.52;;;26.60;96.80;;;;;;4189972;28;20367;-66
2023/09/14 11:52:10;;;;;;;6.05;1.50;;;26.50;97.40;;;;;;4191904;28;20075;-66
2023/09/14 11:54:31;;;;;;;1.00;1.00;;;26.30;99.50;;;;;;4190011;28;20367;-65
2023/09/14 11:56:57;;;;;;;1.20;1.20;;;26.10;99.30;;;;;;4190566;28;20079;-65
2023/09/14 11:59:30;;;;;;;4.80;1.35;;;26.00;99.90;;;;;;4189546;28;20103;-66
2023/09/14 12:01:51;;;;;;;2.75;0.90;;;25.70;99.90;;;;;;4189238;28;20052;-65
2023/09/14 12:04:11;;;;;;;3.80;1.65;;;25.70;99.90;;;;;;4189388;28;20083;-65
2023/09/14 12:06:32;;;;;;;1.20;1.20;;;25.60;99.90;;;;;;4189508;28;20371;-65
2023/09/14 12:08:52;;;;;;;3.30;1.25;;;25.60;99.90;;;;;;4192421;28;20275;-66
2023/09/14 12:11:13;;;;;;;3.95;1.42;;;25.70;99.90;;;;;;4191919;28;20252;-66
2023/09/14 12:13:33;;;;;;;2.15;1.02;;;25.60;99.90;;;;;;4188771;28;20044;-65
2023/09/14 12:16:02;;;;;;;1.15;1.10;;;25.40;99.90;;;;;;4192822;28;20906;-65
2023/09/14 12:18:40;;;;;;;3.92;1.73;;;24.90;99.90;;;;;;4190103;28;20061;-67